createdAt,value
2017-11-15T00:00:31.963Z,1038.21
2017-11-15T00:01:31.953Z,1038.24
2017-11-15T00:02:31.944Z,1038.3
2017-11-15T00:03:31.941Z,1038.34
2017-11-15T00:04:31.923Z,1038.3
2017-11-15T00:05:31.912Z,1038.34
2017-11-15T00:06:31.903Z,1038.33
2017-11-15T00:07:31.892Z,1038.33
2017-11-15T00:08:31.882Z,1038.33
2017-11-15T00:09:31.871Z,1038.31
2017-11-15T00:10:31.862Z,1038.29
2017-11-15T00:11:31.850Z,1038.3
2017-11-15T00:12:31.839Z,1038.27
2017-11-15T00:13:31.830Z,1038.26
2017-11-15T00:14:31.819Z,1038.26
2017-11-15T00:15:31.810Z,1038.24
2017-11-15T00:16:31.799Z,1038.26
2017-11-15T00:17:31.791Z,1038.21
2017-11-15T00:18:31.778Z,1038.22
2017-11-15T00:19:31.769Z,1038.24
2017-11-15T00:20:31.759Z,1038.21
2017-11-15T00:21:31.749Z,1038.24
2017-11-15T00:22:31.738Z,1038.25
2017-11-15T00:23:31.727Z,1038.27
2017-11-15T00:24:31.718Z,1038.3
2017-11-15T00:25:31.705Z,1038.34
2017-11-15T00:26:31.695Z,1038.3
2017-11-15T00:27:31.685Z,1038.34
2017-11-15T00:28:31.676Z,1038.31
2017-11-15T00:29:31.664Z,1038.32
2017-11-15T00:30:31.654Z,1038.38
2017-11-15T00:31:31.644Z,1038.37
2017-11-15T00:32:31.635Z,1038.42
2017-11-15T00:33:31.623Z,1038.38
2017-11-15T00:34:31.612Z,1038.39
2017-11-15T00:35:31.602Z,1038.41
2017-11-15T00:36:31.593Z,1038.4
2017-11-15T00:37:31.586Z,1038.38
2017-11-15T00:38:31.593Z,1038.42
2017-11-15T00:39:31.561Z,1038.4
2017-11-15T00:40:31.550Z,1038.38
2017-11-15T00:41:31.540Z,1038.39
2017-11-15T00:42:31.529Z,1038.37
2017-11-15T00:43:31.521Z,1038.38
2017-11-15T00:44:31.509Z,1038.37
2017-11-15T00:45:31.500Z,1038.36
2017-11-15T00:46:31.493Z,1038.36
2017-11-15T00:47:31.479Z,1038.35
2017-11-15T00:48:31.468Z,1038.35
2017-11-15T00:49:31.458Z,1038.36
2017-11-15T00:50:31.464Z,1038.35
2017-11-15T00:51:31.436Z,1038.36
2017-11-15T00:52:31.427Z,1038.35
2017-11-15T00:53:31.417Z,1038.35
2017-11-15T00:54:31.445Z,1038.35
2017-11-15T00:55:31.395Z,1038.36
2017-11-15T00:56:31.386Z,1038.38
2017-11-15T00:57:31.377Z,1038.41
2017-11-15T00:58:31.365Z,1038.45
2017-11-15T00:59:31.356Z,1038.45
2017-11-15T01:00:31.345Z,1038.46
2017-11-15T01:01:31.336Z,1038.5
2017-11-15T01:02:31.323Z,1038.48
2017-11-15T01:03:31.316Z,1038.48
2017-11-15T01:04:31.305Z,1038.48
2017-11-15T01:05:31.294Z,1038.48
2017-11-15T01:06:31.284Z,1038.49
2017-11-15T01:07:31.274Z,1038.48
2017-11-15T01:08:31.265Z,1038.46
2017-11-15T01:09:31.253Z,1038.47
2017-11-15T01:10:31.243Z,1038.43
2017-11-15T01:11:31.232Z,1038.38
2017-11-15T01:12:31.223Z,1038.45
2017-11-15T01:13:31.216Z,1038.46
2017-11-15T01:14:31.202Z,1038.47
2017-11-15T01:15:31.192Z,1038.49
2017-11-15T01:16:31.182Z,1038.47
2017-11-15T01:17:31.185Z,1038.49
2017-11-15T01:18:31.182Z,1038.48
2017-11-15T01:19:31.153Z,1038.46
2017-11-15T01:20:31.139Z,1038.47
2017-11-15T01:21:31.130Z,1038.47
2017-11-15T01:22:31.121Z,1038.45
2017-11-15T01:23:31.111Z,1038.42
2017-11-15T01:24:31.101Z,1038.47
2017-11-15T01:25:31.092Z,1038.46
2017-11-15T01:26:31.079Z,1038.48
2017-11-15T01:27:31.069Z,1038.48
2017-11-15T01:28:31.059Z,1038.45
2017-11-15T01:29:31.054Z,1038.47
2017-11-15T01:30:31.040Z,1038.43
2017-11-15T01:31:31.029Z,1038.43
2017-11-15T01:32:31.019Z,1038.4
2017-11-15T01:33:31.009Z,1038.41
2017-11-15T01:34:31.003Z,1038.38
2017-11-15T01:35:30.988Z,1038.39
2017-11-15T01:36:30.996Z,1038.33
2017-11-15T01:37:30.969Z,1038.36
2017-11-15T01:38:30.958Z,1038.34
2017-11-15T01:39:30.947Z,1038.38
2017-11-15T01:40:30.938Z,1038.43
2017-11-15T01:41:30.928Z,1038.39
2017-11-15T01:42:30.918Z,1038.39
2017-11-15T01:43:30.917Z,1038.42
2017-11-15T01:44:30.898Z,1038.43
2017-11-15T01:45:30.887Z,1038.41
2017-11-15T01:46:30.881Z,1038.43
2017-11-15T01:47:30.867Z,1038.44
2017-11-15T01:48:30.856Z,1038.43
2017-11-15T01:49:30.846Z,1038.45
2017-11-15T01:50:30.837Z,1038.39
2017-11-15T01:51:30.827Z,1038.38
2017-11-15T01:52:30.816Z,1038.33
2017-11-15T01:53:30.807Z,1038.34
2017-11-15T01:54:30.796Z,1038.35
2017-11-15T01:55:30.787Z,1038.35
2017-11-15T01:56:30.778Z,1038.35
2017-11-15T01:57:30.766Z,1038.37
2017-11-15T01:58:30.756Z,1038.38
2017-11-15T01:59:30.754Z,1038.41
2017-11-15T02:00:30.735Z,1038.45
2017-11-15T02:01:30.726Z,1038.46
2017-11-15T02:02:30.717Z,1038.43
2017-11-15T02:03:30.707Z,1038.48
2017-11-15T02:04:30.696Z,1038.43
2017-11-15T02:05:30.687Z,1038.44
2017-11-15T02:06:30.677Z,1038.42
2017-11-15T02:07:30.666Z,1038.46
2017-11-15T02:08:30.657Z,1038.42
2017-11-15T02:09:30.646Z,1038.36
2017-11-15T02:10:30.637Z,1038.38
2017-11-15T02:11:30.624Z,1038.38
2017-11-15T02:12:30.615Z,1038.37
2017-11-15T02:13:30.607Z,1038.35
2017-11-15T02:14:30.596Z,1038.35
2017-11-15T02:15:30.584Z,1038.32
2017-11-15T02:16:30.582Z,1038.36
2017-11-15T02:17:30.566Z,1038.41
2017-11-15T02:18:30.556Z,1038.37
2017-11-15T02:19:30.545Z,1038.35
2017-11-15T02:20:30.536Z,1038.43
2017-11-15T02:21:30.525Z,1038.4
2017-11-15T02:22:30.515Z,1038.39
2017-11-15T02:23:30.505Z,1038.4
2017-11-15T02:24:30.494Z,1038.39
2017-11-15T02:25:30.486Z,1038.41
2017-11-15T02:26:30.474Z,1038.42
2017-11-15T02:27:30.464Z,1038.42
2017-11-15T02:28:30.455Z,1038.46
2017-11-15T02:29:30.446Z,1038.44
2017-11-15T02:30:30.436Z,1038.46
2017-11-15T02:31:30.426Z,1038.45
2017-11-15T02:32:30.416Z,1038.47
2017-11-15T02:33:30.405Z,1038.47
2017-11-15T02:34:30.395Z,1038.47
2017-11-15T02:35:30.385Z,1038.46
2017-11-15T02:36:30.385Z,1038.44
2017-11-15T02:37:30.364Z,1038.5
2017-11-15T02:38:30.353Z,1038.46
2017-11-15T02:39:30.345Z,1038.44
2017-11-15T02:40:30.335Z,1038.42
2017-11-15T02:41:30.324Z,1038.41
2017-11-15T02:42:30.315Z,1038.39
2017-11-15T02:43:30.305Z,1038.37
2017-11-15T02:44:30.295Z,1038.41
2017-11-15T02:45:30.285Z,1038.42
2017-11-15T02:46:30.275Z,1038.39
2017-11-15T02:47:30.264Z,1038.44
2017-11-15T02:48:30.260Z,1038.42
2017-11-15T02:49:30.245Z,1038.43
2017-11-15T02:50:30.235Z,1038.43
2017-11-15T02:51:30.227Z,1038.41
2017-11-15T02:52:30.215Z,1038.41
2017-11-15T02:53:30.208Z,1038.41
2017-11-15T02:54:30.201Z,1038.46
2017-11-15T02:55:30.185Z,1038.47
2017-11-15T02:56:30.176Z,1038.47
2017-11-15T02:57:30.165Z,1038.46
2017-11-15T02:58:30.155Z,1038.47
2017-11-15T02:59:30.151Z,1038.45
2017-11-15T03:00:30.133Z,1038.48
2017-11-15T03:01:30.126Z,1038.53
2017-11-15T03:02:30.114Z,1038.56
2017-11-15T03:03:30.105Z,1038.58
2017-11-15T03:04:30.096Z,1038.56
2017-11-15T03:05:30.084Z,1038.55
2017-11-15T03:06:30.074Z,1038.55
2017-11-15T03:07:30.065Z,1038.49
2017-11-15T03:08:30.056Z,1038.49
2017-11-15T03:09:30.044Z,1038.45
2017-11-15T03:10:30.035Z,1038.45
2017-11-15T03:11:30.025Z,1038.46
2017-11-15T03:12:30.015Z,1038.47
2017-11-15T03:13:30.008Z,1038.51
2017-11-15T03:14:29.999Z,1038.55
2017-11-15T03:15:29.985Z,1038.55
2017-11-15T03:16:29.976Z,1038.57
2017-11-15T03:17:29.975Z,1038.55
2017-11-15T03:18:29.953Z,1038.58
2017-11-15T03:19:29.945Z,1038.61
2017-11-15T03:20:29.933Z,1038.61
2017-11-15T03:21:29.922Z,1038.63
2017-11-15T03:22:29.920Z,1038.63
2017-11-15T03:23:29.902Z,1038.66
2017-11-15T03:24:29.894Z,1038.66
2017-11-15T03:25:29.884Z,1038.65
2017-11-15T03:26:29.874Z,1038.68
2017-11-15T03:27:29.869Z,1038.66
2017-11-15T03:28:29.852Z,1038.67
2017-11-15T03:29:29.853Z,1038.71
2017-11-15T03:30:29.835Z,1038.73
2017-11-15T03:31:29.824Z,1038.72
2017-11-15T03:32:29.813Z,1038.73
2017-11-15T03:33:29.802Z,1038.7
2017-11-15T03:34:29.793Z,1038.64
2017-11-15T03:35:29.781Z,1038.65
2017-11-15T03:36:29.771Z,1038.63
2017-11-15T03:37:29.761Z,1038.59
2017-11-15T03:38:29.751Z,1038.59
2017-11-15T03:39:29.741Z,1038.6
2017-11-15T03:40:29.731Z,1038.57
2017-11-15T03:41:29.721Z,1038.51
2017-11-15T03:42:29.710Z,1038.54
2017-11-15T03:43:29.701Z,1038.56
2017-11-15T03:44:29.689Z,1038.55
2017-11-15T03:45:29.678Z,1038.55
2017-11-15T03:46:29.670Z,1038.59
2017-11-15T03:47:29.659Z,1038.63
2017-11-15T03:48:29.648Z,1038.55
2017-11-15T03:49:29.638Z,1038.56
2017-11-15T03:50:29.628Z,1038.47
2017-11-15T03:51:29.619Z,1038.48
2017-11-15T03:52:29.608Z,1038.45
2017-11-15T03:53:29.599Z,1038.47
2017-11-15T03:54:29.588Z,1038.46
2017-11-15T03:55:29.577Z,1038.46
2017-11-15T03:56:29.568Z,1038.45
2017-11-15T03:57:29.555Z,1038.45
2017-11-15T03:58:29.546Z,1038.44
2017-11-15T03:59:29.535Z,1038.41
2017-11-15T04:00:29.527Z,1038.41
2017-11-15T04:01:29.515Z,1038.43
2017-11-15T04:02:29.506Z,1038.44
2017-11-15T04:03:29.496Z,1038.45
2017-11-15T04:04:29.486Z,1038.48
2017-11-15T04:05:29.476Z,1038.55
2017-11-15T04:06:29.466Z,1038.49
2017-11-15T04:07:29.454Z,1038.49
2017-11-15T04:08:29.456Z,1038.47
2017-11-15T04:09:29.445Z,1038.44
2017-11-15T04:10:29.422Z,1038.43
2017-11-15T04:11:29.415Z,1038.42
2017-11-15T04:12:29.403Z,1038.44
2017-11-15T04:13:29.394Z,1038.47
2017-11-15T04:14:29.382Z,1038.53
2017-11-15T04:15:29.380Z,1038.55
2017-11-15T04:16:29.362Z,1038.52
2017-11-15T04:17:29.352Z,1038.54
2017-11-15T04:18:29.343Z,1038.52
2017-11-15T04:19:29.330Z,1038.52
2017-11-15T04:20:29.326Z,1038.53
2017-11-15T04:21:29.314Z,1038.52
2017-11-15T04:22:29.301Z,1038.51
2017-11-15T04:23:29.290Z,1038.49
2017-11-15T04:24:29.285Z,1038.49
2017-11-15T04:25:29.270Z,1038.42
2017-11-15T04:26:29.259Z,1038.39
2017-11-15T04:27:29.250Z,1038.38
2017-11-15T04:28:29.239Z,1038.39
2017-11-15T04:29:29.230Z,1038.37
2017-11-15T04:30:29.221Z,1038.38
2017-11-15T04:31:29.209Z,1038.35
2017-11-15T04:32:29.199Z,1038.35
2017-11-15T04:33:29.189Z,1038.34
2017-11-15T04:34:29.176Z,1038.31
2017-11-15T04:35:29.181Z,1038.32
2017-11-15T04:36:29.158Z,1038.28
2017-11-15T04:37:29.151Z,1038.26
2017-11-15T04:38:29.137Z,1038.28
2017-11-15T04:39:29.127Z,1038.29
2017-11-15T04:40:29.119Z,1038.33
2017-11-15T04:41:29.105Z,1038.37
2017-11-15T04:42:29.095Z,1038.37
2017-11-15T04:43:29.085Z,1038.39
2017-11-15T04:44:29.077Z,1038.38
2017-11-15T04:45:29.065Z,1038.36
2017-11-15T04:46:29.055Z,1038.4
2017-11-15T04:47:29.046Z,1038.39
2017-11-15T04:48:29.035Z,1038.42
2017-11-15T04:49:29.024Z,1038.39
2017-11-15T04:50:29.016Z,1038.44
2017-11-15T04:51:29.005Z,1038.42
2017-11-15T04:52:28.994Z,1038.41
2017-11-15T04:53:28.985Z,1038.37
2017-11-15T04:54:28.974Z,1038.37
2017-11-15T04:55:28.964Z,1038.34
2017-11-15T04:56:28.952Z,1038.35
2017-11-15T04:57:28.945Z,1038.38
2017-11-15T04:58:28.933Z,1038.41
2017-11-15T04:59:28.924Z,1038.44
2017-11-15T05:00:28.913Z,1038.43
2017-11-15T05:01:28.905Z,1038.46
2017-11-15T05:02:28.894Z,1038.44
2017-11-15T05:03:28.882Z,1038.43
2017-11-15T05:04:28.875Z,1038.47
2017-11-15T05:05:28.862Z,1038.46
2017-11-15T05:06:28.861Z,1038.5
2017-11-15T05:07:28.842Z,1038.5
2017-11-15T05:08:28.833Z,1038.47
2017-11-15T05:09:28.823Z,1038.49
2017-11-15T05:10:28.811Z,1038.49
2017-11-15T05:11:28.805Z,1038.49
2017-11-15T05:12:28.798Z,1038.48
2017-11-15T05:13:28.782Z,1038.48
2017-11-15T05:14:28.773Z,1038.48
2017-11-15T05:15:28.762Z,1038.44
2017-11-15T05:16:28.751Z,1038.44
2017-11-15T05:17:28.742Z,1038.41
2017-11-15T05:18:28.732Z,1038.44
2017-11-15T05:19:28.721Z,1038.36
2017-11-15T05:20:28.711Z,1038.41
2017-11-15T05:21:28.701Z,1038.42
2017-11-15T05:22:28.690Z,1038.45
2017-11-15T05:23:28.680Z,1038.45
2017-11-15T05:24:28.671Z,1038.44
2017-11-15T05:25:28.660Z,1038.48
2017-11-15T05:26:28.651Z,1038.46
2017-11-15T05:27:28.641Z,1038.51
2017-11-15T05:28:28.630Z,1038.5
2017-11-15T05:29:28.621Z,1038.52
2017-11-15T05:30:28.610Z,1038.59
2017-11-15T05:31:28.601Z,1038.59
2017-11-15T05:32:28.590Z,1038.63
2017-11-15T05:33:28.579Z,1038.59
2017-11-15T05:34:28.570Z,1038.6
2017-11-15T05:35:28.561Z,1038.56
2017-11-15T05:36:28.551Z,1038.54
2017-11-15T05:37:28.549Z,1038.57
2017-11-15T05:38:28.530Z,1038.55
2017-11-15T05:39:28.520Z,1038.49
2017-11-15T05:40:28.510Z,1038.5
2017-11-15T05:41:28.499Z,1038.47
2017-11-15T05:42:28.490Z,1038.51
2017-11-15T05:43:28.478Z,1038.49
2017-11-15T05:44:28.470Z,1038.52
2017-11-15T05:45:28.459Z,1038.5
2017-11-15T05:46:28.451Z,1038.49
2017-11-15T05:47:28.439Z,1038.46
2017-11-15T05:48:28.431Z,1038.51
2017-11-15T05:49:28.421Z,1038.53
2017-11-15T05:50:28.412Z,1038.5
2017-11-15T05:51:28.403Z,1038.5
2017-11-15T05:52:28.389Z,1038.5
2017-11-15T05:53:28.381Z,1038.5
2017-11-15T05:54:28.369Z,1038.51
2017-11-15T05:55:28.360Z,1038.49
2017-11-15T05:56:28.351Z,1038.46
2017-11-15T05:57:28.341Z,1038.48
2017-11-15T05:58:28.330Z,1038.5
2017-11-15T05:59:28.320Z,1038.54
2017-11-15T06:00:28.311Z,1038.54
2017-11-15T06:01:28.301Z,1038.53
2017-11-15T06:02:28.291Z,1038.52
2017-11-15T06:03:28.283Z,1038.54
2017-11-15T06:04:28.271Z,1038.56
2017-11-15T06:05:28.260Z,1038.57
2017-11-15T06:06:28.252Z,1038.56
2017-11-15T06:07:28.240Z,1038.58
2017-11-15T06:08:28.231Z,1038.61
2017-11-15T06:09:28.288Z,1038.59
2017-11-15T06:10:28.317Z,1038.63
2017-11-15T06:11:28.262Z,1038.6
2017-11-15T06:12:28.267Z,1038.6
2017-11-15T06:13:28.203Z,1038.59
2017-11-15T06:14:28.276Z,1038.59
2017-11-15T06:15:28.272Z,1038.62
2017-11-15T06:16:28.157Z,1038.61
2017-11-15T06:17:28.141Z,1038.67
2017-11-15T06:18:28.137Z,1038.65
2017-11-15T06:19:28.148Z,1038.68
2017-11-15T06:20:28.111Z,1038.69
2017-11-15T06:21:28.168Z,1038.73
2017-11-15T06:22:28.220Z,1038.75
2017-11-15T06:23:28.087Z,1038.78
2017-11-15T06:24:28.109Z,1038.76
2017-11-15T06:25:28.069Z,1038.79
2017-11-15T06:26:28.169Z,1038.84
2017-11-15T06:27:28.148Z,1038.84
2017-11-15T06:28:28.055Z,1038.87
2017-11-15T06:29:28.105Z,1038.87
2017-11-15T06:30:28.032Z,1038.88
2017-11-15T06:31:28.083Z,1038.85
2017-11-15T06:32:28.083Z,1038.86
2017-11-15T06:33:28.041Z,1038.87
2017-11-15T06:34:28.086Z,1038.86
2017-11-15T06:35:28.095Z,1038.84
2017-11-15T06:36:28.123Z,1038.86
2017-11-15T06:37:27.997Z,1038.9
2017-11-15T06:38:27.934Z,1038.87
2017-11-15T06:39:27.924Z,1038.89
2017-11-15T06:40:27.914Z,1038.92
2017-11-15T06:41:27.905Z,1038.95
2017-11-15T06:42:27.900Z,1038.93
2017-11-15T06:43:27.885Z,1038.94
2017-11-15T06:44:27.875Z,1038.94
2017-11-15T06:45:27.867Z,1039.01
2017-11-15T06:46:27.856Z,1038.99
2017-11-15T06:47:27.846Z,1038.96
2017-11-15T06:48:27.837Z,1038.98
2017-11-15T06:49:27.825Z,1038.99
2017-11-15T06:50:27.815Z,1038.98
2017-11-15T06:51:27.807Z,1038.97
2017-11-15T06:52:27.798Z,1038.96
2017-11-15T06:53:27.788Z,1038.91
2017-11-15T06:54:27.777Z,1038.9
2017-11-15T06:55:27.768Z,1038.93
2017-11-15T06:56:27.768Z,1038.94
2017-11-15T06:57:27.747Z,1038.94
2017-11-15T06:58:27.739Z,1038.97
2017-11-15T06:59:27.728Z,1038.94
2017-11-15T07:00:27.718Z,1038.98
2017-11-15T07:01:27.708Z,1038.95
2017-11-15T07:02:27.698Z,1038.94
2017-11-15T07:03:27.696Z,1038.95
2017-11-15T07:04:27.679Z,1038.98
2017-11-15T07:05:27.669Z,1039.01
2017-11-15T07:06:27.659Z,1039.02
2017-11-15T07:07:27.648Z,1039.04
2017-11-15T07:08:27.639Z,1039.01
2017-11-15T07:09:27.636Z,1039.03
2017-11-15T07:10:27.621Z,1039.02
2017-11-15T07:11:27.610Z,1039.06
2017-11-15T07:12:27.599Z,1039.04
2017-11-15T07:13:27.590Z,1039.06
2017-11-15T07:14:27.580Z,1039.05
2017-11-15T07:15:27.574Z,1039.04
2017-11-15T07:16:27.562Z,1039.01
2017-11-15T07:17:27.551Z,1038.99
2017-11-15T07:18:27.547Z,1038.96
2017-11-15T07:19:27.532Z,1038.92
2017-11-15T07:20:27.522Z,1038.88
2017-11-15T07:21:27.512Z,1038.84
2017-11-15T07:22:27.503Z,1038.85
2017-11-15T07:23:27.500Z,1038.85
2017-11-15T07:24:27.486Z,1038.87
2017-11-15T07:25:27.504Z,1038.9
2017-11-15T07:26:27.464Z,1038.92
2017-11-15T07:27:27.455Z,1038.88
2017-11-15T07:28:27.446Z,1038.87
2017-11-15T07:29:27.436Z,1038.9
2017-11-15T07:30:27.425Z,1038.89
2017-11-15T07:31:27.417Z,1038.87
2017-11-15T07:32:27.411Z,1038.85
2017-11-15T07:33:27.396Z,1038.88
2017-11-15T07:34:27.388Z,1038.86
2017-11-15T07:35:27.379Z,1038.86
2017-11-15T07:36:27.374Z,1038.82
2017-11-15T07:37:27.370Z,1038.85
2017-11-15T07:38:27.361Z,1038.85
2017-11-15T07:39:27.341Z,1038.86
2017-11-15T07:40:27.330Z,1038.87
2017-11-15T07:41:27.323Z,1038.83
2017-11-15T07:42:27.313Z,1038.83
2017-11-15T07:43:27.303Z,1038.84
2017-11-15T07:44:27.293Z,1038.69
2017-11-15T07:45:27.284Z,1038.63
2017-11-15T07:46:27.274Z,1038.55
2017-11-15T07:47:27.271Z,1038.5
2017-11-15T07:48:27.255Z,1038.49
2017-11-15T07:49:27.246Z,1038.41
2017-11-15T07:50:27.237Z,1038.45
2017-11-15T07:51:27.227Z,1038.44
2017-11-15T07:52:27.218Z,1038.38
2017-11-15T07:53:27.213Z,1038.28
2017-11-15T07:54:27.199Z,1038.16
2017-11-15T07:55:27.195Z,1038.07
2017-11-15T07:56:27.180Z,1038.08
2017-11-15T07:57:27.184Z,1038.11
2017-11-15T07:58:27.168Z,1038.09
2017-11-15T07:59:27.153Z,1038.13
2017-11-15T08:00:27.144Z,1038.17
2017-11-15T08:01:27.137Z,1038.18
2017-11-15T08:02:27.127Z,1038.17
2017-11-15T08:03:27.123Z,1038.23
2017-11-15T08:04:27.110Z,1038.26
2017-11-15T08:05:27.100Z,1038.29
2017-11-15T08:06:27.091Z,1038.24
2017-11-15T08:07:27.081Z,1038.2
2017-11-15T08:08:27.073Z,1038.26
2017-11-15T08:09:27.065Z,1038.27
2017-11-15T08:10:27.056Z,1038.22
2017-11-15T08:11:27.054Z,1038.21
2017-11-15T08:12:27.039Z,1038.23
2017-11-15T08:13:27.031Z,1038.2
2017-11-15T08:14:27.026Z,1038.25
2017-11-15T08:15:27.014Z,1038.24
2017-11-15T08:16:27.003Z,1038.27
2017-11-15T08:17:26.995Z,1038.25
2017-11-15T08:18:26.987Z,1038.19
2017-11-15T08:19:26.982Z,1038.16
2017-11-15T08:20:26.971Z,1038.1
2017-11-15T08:21:26.959Z,1038.01
2017-11-15T08:22:26.956Z,1037.97
2017-11-15T08:23:26.946Z,1037.98
2017-11-15T08:24:26.933Z,1037.94
2017-11-15T08:25:26.943Z,1037.93
2017-11-15T08:26:26.916Z,1037.91
2017-11-15T08:27:26.910Z,1037.88
2017-11-15T08:28:26.910Z,1037.89
2017-11-15T08:29:26.891Z,1037.89
2017-11-15T08:30:26.884Z,1037.91
2017-11-15T08:31:26.875Z,1037.9
2017-11-15T08:32:26.867Z,1037.91
2017-11-15T08:33:26.863Z,1037.93
2017-11-15T08:34:26.853Z,1037.93
2017-11-15T08:35:26.841Z,1037.95
2017-11-15T08:36:26.836Z,1037.94
2017-11-15T08:37:26.826Z,1037.95
2017-11-15T08:38:26.822Z,1037.95
2017-11-15T08:39:26.808Z,1037.95
2017-11-15T08:40:26.800Z,1037.94
2017-11-15T08:41:26.792Z,1037.95
2017-11-15T08:42:26.800Z,1037.97
2017-11-15T08:43:26.785Z,1037.95
2017-11-15T08:44:26.785Z,1037.98
2017-11-15T08:45:26.791Z,1038
2017-11-15T08:46:26.760Z,1038.01
2017-11-15T08:47:26.761Z,1038.02
2017-11-15T08:48:26.753Z,1038.1
2017-11-15T08:49:26.744Z,1038.14
2017-11-15T08:50:26.723Z,1038.2
2017-11-15T08:51:26.725Z,1038.21
2017-11-15T08:52:26.718Z,1038.26
2017-11-15T08:53:26.693Z,1038.23
2017-11-15T08:54:26.686Z,1038.25
2017-11-15T08:55:26.679Z,1038.28
2017-11-15T08:56:26.670Z,1038.28
2017-11-15T08:57:26.677Z,1038.33
2017-11-15T08:58:26.667Z,1038.31
2017-11-15T08:59:26.677Z,1038.33
2017-11-15T09:00:26.637Z,1038.32
2017-11-15T09:01:26.654Z,1038.34
2017-11-15T09:02:26.626Z,1038.27
2017-11-15T09:03:26.612Z,1038.21
2017-11-15T09:04:26.603Z,1038.19
2017-11-15T09:05:26.599Z,1038.2
2017-11-15T09:06:26.588Z,1038.17
2017-11-15T09:07:26.600Z,1038.21
2017-11-15T09:08:26.579Z,1038.16
2017-11-15T09:09:26.565Z,1038.12
2017-11-15T09:10:26.586Z,1038.1
2017-11-15T09:11:26.580Z,1038.09
2017-11-15T09:12:26.555Z,1038.05
2017-11-15T09:13:26.538Z,1038.04
2017-11-15T09:14:26.532Z,1038.08
2017-11-15T09:15:26.530Z,1038.02
2017-11-15T09:16:26.507Z,1038.03
2017-11-15T09:17:26.509Z,1037.99
2017-11-15T09:18:26.517Z,1037.98
2017-11-15T09:19:26.484Z,1038.03
2017-11-15T09:20:26.487Z,1038.05
2017-11-15T09:21:26.466Z,1038.03
2017-11-15T09:22:26.482Z,1038
2017-11-15T09:23:26.460Z,1038.04
2017-11-15T09:24:26.475Z,1038.05
2017-11-15T09:25:26.438Z,1038.05
2017-11-15T09:26:26.425Z,1038.04
2017-11-15T09:27:26.418Z,1038.02
2017-11-15T09:28:26.410Z,1038.01
2017-11-15T09:29:26.406Z,1038
2017-11-15T09:30:26.407Z,1037.98
2017-11-15T09:31:26.401Z,1038
2017-11-15T09:32:26.395Z,1038
2017-11-15T09:33:26.379Z,1038
2017-11-15T09:34:26.385Z,1037.95
2017-11-15T09:35:26.372Z,1037.94
2017-11-15T09:36:26.364Z,1037.92
2017-11-15T09:37:26.340Z,1037.96
2017-11-15T09:38:26.344Z,1037.96
2017-11-15T09:39:26.354Z,1037.96
2017-11-15T09:40:26.346Z,1038.05
2017-11-15T09:41:26.338Z,1038.01
2017-11-15T09:42:26.309Z,1038.02
2017-11-15T09:43:26.303Z,1038
2017-11-15T09:44:26.294Z,1038.03
2017-11-15T09:45:26.300Z,1038.03
2017-11-15T09:46:26.290Z,1038.07
2017-11-15T09:47:26.271Z,1038.11
2017-11-15T09:48:26.267Z,1038.09
2017-11-15T09:49:26.245Z,1038.08
2017-11-15T09:50:26.237Z,1038.11
2017-11-15T09:51:26.230Z,1038.07
2017-11-15T09:52:26.221Z,1038
2017-11-15T09:53:26.219Z,1037.93
2017-11-15T09:54:26.205Z,1037.84
2017-11-15T09:55:26.200Z,1037.78
2017-11-15T09:56:26.191Z,1037.73
2017-11-15T09:57:26.182Z,1037.73
2017-11-15T09:58:26.174Z,1037.65
2017-11-15T09:59:26.170Z,1037.62
2017-11-15T10:00:26.159Z,1037.58
2017-11-15T10:01:26.151Z,1037.54
2017-11-15T10:02:26.144Z,1037.53
2017-11-15T10:03:26.135Z,1037.5
2017-11-15T10:04:26.134Z,1037.5
2017-11-15T10:05:26.121Z,1037.45
2017-11-15T10:06:26.128Z,1037.45
2017-11-15T10:07:26.104Z,1037.43
2017-11-15T10:08:26.096Z,1037.49
2017-11-15T10:09:26.087Z,1037.54
2017-11-15T10:10:26.081Z,1037.6
2017-11-15T10:11:26.075Z,1037.58
2017-11-15T10:12:26.082Z,1037.61
2017-11-15T10:13:26.069Z,1037.62
2017-11-15T10:14:26.068Z,1037.63
2017-11-15T10:15:26.048Z,1037.65
2017-11-15T10:16:26.035Z,1037.63
2017-11-15T10:17:26.030Z,1037.62
2017-11-15T10:18:26.026Z,1037.6
2017-11-15T10:19:26.027Z,1037.61
2017-11-15T10:20:26.009Z,1037.58
2017-11-15T10:21:25.998Z,1037.55
2017-11-15T10:22:26.005Z,1037.56
2017-11-15T10:23:25.985Z,1037.59
2017-11-15T10:24:25.980Z,1037.58
2017-11-15T10:25:25.976Z,1037.58
2017-11-15T10:26:25.960Z,1037.56
2017-11-15T10:27:25.954Z,1037.53
2017-11-15T10:28:25.972Z,1037.52
2017-11-15T10:29:25.952Z,1037.53
2017-11-15T10:30:25.939Z,1037.5
2017-11-15T10:31:25.938Z,1037.48
2017-11-15T10:32:25.932Z,1037.47
2017-11-15T10:33:25.920Z,1037.43
2017-11-15T10:34:25.904Z,1037.42
2017-11-15T10:35:25.923Z,1037.41
2017-11-15T10:36:25.918Z,1037.36
2017-11-15T10:37:25.911Z,1037.35
2017-11-15T10:38:25.886Z,1037.31
2017-11-15T10:39:25.864Z,1037.27
2017-11-15T10:40:25.882Z,1037.24
2017-11-15T10:41:25.865Z,1037.23
2017-11-15T10:42:25.853Z,1037.21
2017-11-15T10:43:25.834Z,1037.23
2017-11-15T10:44:25.826Z,1037.24
2017-11-15T10:45:25.822Z,1037.21
2017-11-15T10:46:25.818Z,1037.18
2017-11-15T10:47:25.809Z,1037.15
2017-11-15T10:48:25.800Z,1037.03
2017-11-15T10:49:25.799Z,1036.93
2017-11-15T10:50:25.784Z,1036.8
2017-11-15T10:51:25.807Z,1036.71
2017-11-15T10:52:25.774Z,1036.6
2017-11-15T10:53:25.771Z,1036.49
2017-11-15T10:54:25.753Z,1036.46
2017-11-15T10:55:25.759Z,1036.42
2017-11-15T10:56:25.745Z,1036.42
2017-11-15T10:57:25.735Z,1036.47
2017-11-15T10:58:25.728Z,1036.48
2017-11-15T10:59:25.721Z,1036.61
2017-11-15T11:00:25.735Z,1036.67
2017-11-15T11:01:25.714Z,1036.78
2017-11-15T11:02:25.699Z,1036.81
2017-11-15T11:03:25.712Z,1036.86
2017-11-15T11:04:25.687Z,1036.89
2017-11-15T11:05:25.678Z,1036.95
2017-11-15T11:06:25.673Z,1037.03
2017-11-15T11:07:25.665Z,1037.03
2017-11-15T11:08:25.671Z,1037.04
2017-11-15T11:09:25.652Z,1037.11
2017-11-15T11:10:25.645Z,1037.14
2017-11-15T11:11:25.638Z,1037.15
2017-11-15T11:12:25.632Z,1037.2
2017-11-15T11:13:25.625Z,1037.22
2017-11-15T11:14:25.618Z,1037.28
2017-11-15T11:15:25.615Z,1037.36
2017-11-15T11:16:25.603Z,1037.45
2017-11-15T11:17:25.596Z,1037.46
2017-11-15T11:18:25.590Z,1037.44
2017-11-15T11:19:25.607Z,1037.42
2017-11-15T11:20:25.592Z,1037.39
2017-11-15T11:21:25.570Z,1037.34
2017-11-15T11:22:25.573Z,1037.28
2017-11-15T11:23:25.560Z,1037.13
2017-11-15T11:24:25.551Z,1037.06
2017-11-15T11:25:25.544Z,1037.04
2017-11-15T11:26:25.536Z,1037.02
2017-11-15T11:27:25.527Z,1037.04
2017-11-15T11:28:25.520Z,1037.13
2017-11-15T11:29:25.525Z,1037.2
2017-11-15T11:30:25.506Z,1037.32
2017-11-15T11:31:25.497Z,1037.31
2017-11-15T11:32:25.495Z,1037.33
2017-11-15T11:33:25.484Z,1037.22
2017-11-15T11:34:25.476Z,1037.18
2017-11-15T11:35:25.485Z,1037.11
2017-11-15T11:36:25.465Z,1037.03
2017-11-15T11:37:25.459Z,1036.98
2017-11-15T11:38:25.449Z,1036.92
2017-11-15T11:39:25.441Z,1036.78
2017-11-15T11:40:25.435Z,1036.76
2017-11-15T11:41:25.437Z,1036.76
2017-11-15T11:42:25.429Z,1036.76
2017-11-15T11:43:25.414Z,1036.73
2017-11-15T11:44:25.410Z,1036.71
2017-11-15T11:45:25.399Z,1036.67
2017-11-15T11:46:25.393Z,1036.62
2017-11-15T11:47:25.385Z,1036.6
2017-11-15T11:48:25.380Z,1036.55
2017-11-15T11:49:25.372Z,1036.46
2017-11-15T11:50:25.369Z,1036.43
2017-11-15T11:51:25.361Z,1036.46
2017-11-15T11:52:25.355Z,1036.41
2017-11-15T11:53:25.345Z,1036.41
2017-11-15T11:54:25.341Z,1036.41
2017-11-15T11:55:25.353Z,1036.44
2017-11-15T11:56:25.341Z,1036.45
2017-11-15T11:57:25.317Z,1036.53
2017-11-15T11:58:25.310Z,1036.5
2017-11-15T11:59:25.304Z,1036.45
2017-11-15T12:00:25.296Z,1036.43
2017-11-15T12:01:25.295Z,1036.55
2017-11-15T12:02:25.283Z,1036.62
2017-11-15T12:03:25.277Z,1036.74
2017-11-15T12:04:25.270Z,1036.74
2017-11-15T12:05:25.266Z,1036.73
2017-11-15T12:06:25.256Z,1036.64
2017-11-15T12:07:25.249Z,1036.65
2017-11-15T12:08:25.246Z,1036.67